sensor_id;sensor_type;location;lat;lon;timestamp;pressure;altitude;pressure_sealevel;temperature;humidity
71976;BME280;68326;52.124;5.424;2023-12-20T00:01:05;101563.22;;;8.09;94.82
71976;BME280;68326;52.124;5.424;2023-12-20T00:03:31;101555.44;;;8.09;94.83
71976;BME280;68326;52.124;5.424;2023-12-20T00:06:08;101554.47;;;8.13;94.45
71976;BME280;68326;52.124;5.424;2023-12-20T00:08:34;101550.38;;;8.06;94.39
71976;BME280;68326;52.124;5.424;2023-12-20T00:11:01;101540.88;;;8.05;94.30
71976;BME280;68326;52.124;5.424;2023-12-20T00:13:27;101540.91;;;8.03;94.17
71976;BME280;68326;52.124;5.424;2023-12-20T00:15:54;101543.56;;;8.02;94.49
71976;BME280;68326;52.124;5.424;2023-12-20T00:18:20;101540.97;;;8.02;93.88
71976;BME280;68326;52.124;5.424;2023-12-20T00:20:47;101539.31;;;7.99;94.39
71976;BME280;68326;52.124;5.424;2023-12-20T00:23:13;101543.78;;;7.94;94.24
71976;BME280;68326;52.124;5.424;2023-12-20T00:25:40;101540.41;;;7.90;93.82
71976;BME280;68326;52.124;5.424;2023-12-20T00:28:06;101540.50;;;7.87;93.47
71976;BME280;68326;52.124;5.424;2023-12-20T00:30:33;101531.81;;;7.88;94.11
71976;BME280;68326;52.124;5.424;2023-12-20T00:33:00;101540.59;;;7.84;94.21
71976;BME280;68326;52.124;5.424;2023-12-20T00:35:26;101541.59;;;7.80;93.95
71976;BME280;68326;52.124;5.424;2023-12-20T00:37:53;101544.22;;;7.79;93.46
71976;BME280;68326;52.124;5.424;2023-12-20T00:40:20;101549.44;;;7.75;93.98
71976;BME280;68326;52.124;5.424;2023-12-20T00:42:47;101539.97;;;7.76;94.13
71976;BME280;68326;52.124;5.424;2023-12-20T00:45:14;101543.47;;;7.73;93.60
71976;BME280;68326;52.124;5.424;2023-12-20T00:47:41;101541.81;;;7.71;93.82
71976;BME280;68326;52.124;5.424;2023-12-20T00:50:09;101539.31;;;7.68;94.39
71976;BME280;68326;52.124;5.424;2023-12-20T00:52:36;101535.13;;;7.64;93.38
71976;BME280;68326;52.124;5.424;2023-12-20T00:55:03;101532.56;;;7.62;93.92
71976;BME280;68326;52.124;5.424;2023-12-20T00:57:30;101531.63;;;7.65;93.86
71976;BME280;68326;52.124;5.424;2023-12-20T00:59:57;101545.53;;;7.61;93.97
71976;BME280;68326;52.124;5.424;2023-12-20T01:02:24;101542.09;;;7.60;93.78
71976;BME280;68326;52.124;5.424;2023-12-20T01:04:50;101540.44;;;7.58;93.43
71976;BME280;68326;52.124;5.424;2023-12-20T01:07:17;101530.22;;;7.53;93.82
71976;BME280;68326;52.124;5.424;2023-12-20T01:09:44;101522.41;;;7.54;93.95
71976;BME280;68326;52.124;5.424;2023-12-20T01:12:10;101522.44;;;7.53;94.59
71976;BME280;68326;52.124;5.424;2023-12-20T01:14:37;101521.66;;;7.51;93.86
71976;BME280;68326;52.124;5.424;2023-12-20T01:17:03;101522.47;;;7.51;93.84
71976;BME280;68326;52.124;5.424;2023-12-20T01:19:30;101517.34;;;7.50;94.01
71976;BME280;68326;52.124;5.424;2023-12-20T01:21:57;101516.38;;;7.54;94.04
71976;BME280;68326;52.124;5.424;2023-12-20T01:24:23;101516.44;;;7.52;93.80
71976;BME280;68326;52.124;5.424;2023-12-20T01:26:50;101534.56;;;7.52;93.21
71976;BME280;68326;52.124;5.424;2023-12-20T01:29:16;101530.25;;;7.51;93.27
71976;BME280;68326;52.124;5.424;2023-12-20T01:31:43;101544.91;;;7.52;93.67
71976;BME280;68326;52.124;5.424;2023-12-20T01:34:09;101539.75;;;7.52;93.60
71976;BME280;68326;52.124;5.424;2023-12-20T01:36:36;101544.03;;;7.52;93.72
71976;BME280;68326;52.124;5.424;2023-12-20T01:39:03;101538.94;;;7.50;93.69
71976;BME280;68326;52.124;5.424;2023-12-20T01:41:35;101538.97;;;7.49;93.46
71976;BME280;68326;52.124;5.424;2023-12-20T01:44:02;101543.28;;;7.48;94.31
71976;BME280;68326;52.124;5.424;2023-12-20T01:46:28;101532.13;;;7.46;94.08
71976;BME280;68326;52.124;5.424;2023-12-20T01:48:55;101525.88;;;7.53;94.04
71976;BME280;68326;52.124;5.424;2023-12-20T01:51:22;101523.28;;;7.53;94.10
71976;BME280;68326;52.124;5.424;2023-12-20T01:53:49;101527.59;;;7.54;93.62
71976;BME280;68326;52.124;5.424;2023-12-20T01:56:16;101524.13;;;7.54;93.89
71976;BME280;68326;52.124;5.424;2023-12-20T01:58:44;101532.72;;;7.56;94.14
71976;BME280;68326;52.124;5.424;2023-12-20T02:01:11;101531.78;;;7.59;94.09
71976;BME280;68326;52.124;5.424;2023-12-20T02:03:42;101528.28;;;7.61;93.84
71976;BME280;68326;52.124;5.424;2023-12-20T02:06:09;101530.91;;;7.60;93.82
71976;BME280;68326;52.124;5.424;2023-12-20T02:08:36;101534.38;;;7.59;93.84
71976;BME280;68326;52.124;5.424;2023-12-20T02:11:02;101526.56;;;7.60;93.86
71976;BME280;68326;52.124;5.424;2023-12-20T02:13:30;101530.09;;;7.58;93.61
71976;BME280;68326;52.124;5.424;2023-12-20T02:15:57;101528.34;;;7.58;93.53
71976;BME280;68326;52.124;5.424;2023-12-20T02:18:23;101521.38;;;7.60;94.27
71976;BME280;68326;52.124;5.424;2023-12-20T02:20:50;101522.22;;;7.61;93.84
71976;BME280;68326;52.124;5.424;2023-12-20T02:23:17;101519.63;;;7.61;94.33
71976;BME280;68326;52.124;5.424;2023-12-20T02:25:43;101510.97;;;7.63;94.30
71976;BME280;68326;52.124;5.424;2023-12-20T02:28:10;101518.63;;;7.66;94.30
71976;BME280;68326;52.124;5.424;2023-12-20T02:30:37;101515.91;;;7.71;94.04
71976;BME280;68326;52.124;5.424;2023-12-20T02:33:08;101520.91;;;7.77;93.91
71976;BME280;68326;52.124;5.424;2023-12-20T02:35:36;101517.53;;;7.75;93.73
71976;BME280;68326;52.124;5.424;2023-12-20T02:38:03;101515.84;;;7.74;93.90
71976;BME280;68326;52.124;5.424;2023-12-20T02:40:30;101514.88;;;7.78;93.72
71976;BME280;68326;52.124;5.424;2023-12-20T02:42:56;101509.75;;;7.75;93.72
71976;BME280;68326;52.124;5.424;2023-12-20T02:45:23;101502.75;;;7.79;94.08
71976;BME280;68326;52.124;5.424;2023-12-20T02:47:49;101495.00;;;7.77;94.37
71976;BME280;68326;52.124;5.424;2023-12-20T02:50:16;101497.59;;;7.77;93.83
71976;BME280;68326;52.124;5.424;2023-12-20T02:52:44;101495.81;;;7.79;93.62
71976;BME280;68326;52.124;5.424;2023-12-20T02:55:11;101495.81;;;7.79;94.31
71976;BME280;68326;52.124;5.424;2023-12-20T02:57:38;101500.88;;;7.84;93.84
71976;BME280;68326;52.124;5.424;2023-12-20T03:00:09;101495.75;;;7.82;94.04
71976;BME280;68326;52.124;5.424;2023-12-20T03:02:35;101490.47;;;7.85;93.63
71976;BME280;68326;52.124;5.424;2023-12-20T03:05:02;101492.13;;;7.88;93.68
71976;BME280;68326;52.124;5.424;2023-12-20T03:07:29;101491.16;;;7.90;93.62
71976;BME280;68326;52.124;5.424;2023-12-20T03:09:56;101497.25;;;7.89;93.10
71976;BME280;68326;52.124;5.424;2023-12-20T03:12:41;101486.91;;;7.89;93.73
71976;BME280;68326;52.124;5.424;2023-12-20T03:15:08;101486.00;;;7.90;93.60
71976;BME280;68326;52.124;5.424;2023-12-20T03:17:35;101476.50;;;7.91;93.72
71976;BME280;68326;52.124;5.424;2023-12-20T03:20:01;101481.63;;;7.92;93.31
71976;BME280;68326;52.124;5.424;2023-12-20T03:22:28;101482.38;;;7.96;93.71
71976;BME280;68326;52.124;5.424;2023-12-20T03:24:55;101473.78;;;7.95;93.33
71976;BME280;68326;52.124;5.424;2023-12-20T03:27:21;101471.94;;;7.99;93.12
71976;BME280;68326;52.124;5.424;2023-12-20T03:29:48;101459.06;;;7.96;93.59
71976;BME280;68326;52.124;5.424;2023-12-20T03:32:14;101465.00;;;8.00;93.22
71976;BME280;68326;52.124;5.424;2023-12-20T03:34:41;101465.88;;;7.99;93.24
71976;BME280;68326;52.124;5.424;2023-12-20T03:37:07;101472.69;;;8.03;93.59
71976;BME280;68326;52.124;5.424;2023-12-20T03:39:34;101469.94;;;8.07;92.61
71976;BME280;68326;52.124;5.424;2023-12-20T03:42:01;101475.03;;;8.12;93.24
71976;BME280;68326;52.124;5.424;2023-12-20T03:44:27;101477.47;;;8.16;92.57
71976;BME280;68326;52.124;5.424;2023-12-20T03:46:54;101473.97;;;8.17;92.67
71976;BME280;68326;52.124;5.424;2023-12-20T03:49:20;101468.72;;;8.21;92.45
71976;BME280;68326;52.124;5.424;2023-12-20T03:51:47;101474.69;;;8.23;91.52
71976;BME280;68326;52.124;5.424;2023-12-20T03:54:13;101475.50;;;8.25;91.18
71976;BME280;68326;52.124;5.424;2023-12-20T03:56:40;101478.09;;;8.25;91.69
71976;BME280;68326;52.124;5.424;2023-12-20T03:59:06;101466.03;;;8.22;91.47
71976;BME280;68326;52.124;5.424;2023-12-20T04:01:33;101467.00;;;8.20;91.03
71976;BME280;68326;52.124;5.424;2023-12-20T04:03:59;101464.34;;;8.21;91.76
71976;BME280;68326;52.124;5.424;2023-12-20T04:06:26;101469.50;;;8.23;91.49
71976;BME280;68326;52.124;5.424;2023-12-20T04:08:52;101470.34;;;8.23;91.00
71976;BME280;68326;52.124;5.424;2023-12-20T04:11:19;101466.03;;;8.22;91.48
71976;BME280;68326;52.124;5.424;2023-12-20T04:13:45;101468.59;;;8.24;90.97
71976;BME280;68326;52.124;5.424;2023-12-20T04:16:12;101470.13;;;8.31;91.23
71976;BME280;68326;52.124;5.424;2023-12-20T04:18:38;101455.56;;;8.27;90.55
71976;BME280;68326;52.124;5.424;2023-12-20T04:21:05;101458.81;;;8.33;90.68
71976;BME280;68326;52.124;5.424;2023-12-20T04:23:32;101458.72;;;8.35;90.67
71976;BME280;68326;52.124;5.424;2023-12-20T04:25:58;101457.00;;;8.35;90.46
71976;BME280;68326;52.124;5.424;2023-12-20T04:28:24;101456.88;;;8.40;90.46
71976;BME280;68326;52.124;5.424;2023-12-20T04:30:51;101463.81;;;8.40;89.69
71976;BME280;68326;52.124;5.424;2023-12-20T04:33:18;101469.00;;;8.40;89.87
71976;BME280;68326;52.124;5.424;2023-12-20T04:35:44;101464.66;;;8.40;90.00
71976;BME280;68326;52.124;5.424;2023-12-20T04:38:12;101462.72;;;8.47;89.29
71976;BME280;68326;52.124;5.424;2023-12-20T04:40:38;101469.59;;;8.48;89.45
71976;BME280;68326;52.124;5.424;2023-12-20T04:43:07;101464.34;;;8.51;89.20
71976;BME280;68326;52.124;5.424;2023-12-20T04:45:35;101454.81;;;8.51;89.17
71976;BME280;68326;52.124;5.424;2023-12-20T04:48:02;101450.53;;;8.50;88.86
71976;BME280;68326;52.124;5.424;2023-12-20T04:50:29;101457.31;;;8.54;88.62
71976;BME280;68326;52.124;5.424;2023-12-20T04:52:55;101456.31;;;8.59;88.26
71976;BME280;68326;52.124;5.424;2023-12-20T04:55:22;101452.84;;;8.58;88.51
71976;BME280;68326;52.124;5.424;2023-12-20T04:57:48;101458.81;;;8.62;88.88
71976;BME280;68326;52.124;5.424;2023-12-20T05:00:15;101449.22;;;8.64;88.56
71976;BME280;68326;52.124;5.424;2023-12-20T05:02:42;101445.63;;;8.68;88.44
71976;BME280;68326;52.124;5.424;2023-12-20T05:05:09;101437.84;;;8.68;87.73
71976;BME280;68326;52.124;5.424;2023-12-20T05:07:35;101444.84;;;8.66;88.15
71976;BME280;68326;52.124;5.424;2023-12-20T05:10:03;101449.81;;;8.72;88.04
71976;BME280;68326;52.124;5.424;2023-12-20T05:12:30;101457.56;;;8.73;88.00
71976;BME280;68326;52.124;5.424;2023-12-20T05:14:57;101453.25;;;8.72;88.19
71976;BME280;68326;52.124;5.424;2023-12-20T05:17:24;101442.88;;;8.72;88.25
71976;BME280;68326;52.124;5.424;2023-12-20T05:19:50;101449.66;;;8.76;88.00
71976;BME280;68326;52.124;5.424;2023-12-20T05:22:18;101454.06;;;8.74;87.82
71976;BME280;68326;52.124;5.424;2023-12-20T05:24:45;101454.06;;;8.74;87.39
71976;BME280;68326;52.124;5.424;2023-12-20T05:27:12;101457.44;;;8.76;87.75
71976;BME280;68326;52.124;5.424;2023-12-20T05:29:38;101452.22;;;8.78;87.66
71976;BME280;68326;52.124;5.424;2023-12-20T05:32:05;101448.72;;;8.79;87.54
71976;BME280;68326;52.124;5.424;2023-12-20T05:34:31;101460.81;;;8.80;87.63
71976;BME280;68326;52.124;5.424;2023-12-20T05:36:58;101448.75;;;8.77;87.53
71976;BME280;68326;52.124;5.424;2023-12-20T05:39:25;101454.91;;;8.75;87.76
71976;BME280;68326;52.124;5.424;2023-12-20T05:41:52;101452.38;;;8.73;87.72
71976;BME280;68326;52.124;5.424;2023-12-20T05:44:18;101454.03;;;8.76;87.47
71976;BME280;68326;52.124;5.424;2023-12-20T05:46:45;101451.47;;;8.74;87.48
71976;BME280;68326;52.124;5.424;2023-12-20T05:49:11;101452.25;;;8.76;87.08
71976;BME280;68326;52.124;5.424;2023-12-20T05:51:38;101450.50;;;8.77;87.23
71976;BME280;68326;52.124;5.424;2023-12-20T05:54:05;101453.09;;;8.77;87.34
71976;BME280;68326;52.124;5.424;2023-12-20T05:56:31;101456.53;;;8.77;87.42
71976;BME280;68326;52.124;5.424;2023-12-20T05:58:58;101456.47;;;8.81;87.25
71976;BME280;68326;52.124;5.424;2023-12-20T06:01:25;101453.91;;;8.79;87.56
71976;BME280;68326;52.124;5.424;2023-12-20T06:03:52;101452.25;;;8.76;87.35
71976;BME280;68326;52.124;5.424;2023-12-20T06:06:18;101449.56;;;8.80;86.80
71976;BME280;68326;52.124;5.424;2023-12-20T06:08:45;101457.34;;;8.80;86.92
71976;BME280;68326;52.124;5.424;2023-12-20T06:11:11;101445.97;;;8.84;86.93
71976;BME280;68326;52.124;5.424;2023-12-20T06:13:40;101442.47;;;8.85;87.18
71976;BME280;68326;52.124;5.424;2023-12-20T06:16:06;101445.06;;;8.85;86.54
71976;BME280;68326;52.124;5.424;2023-12-20T06:18:34;101439.94;;;8.83;86.85
71976;BME280;68326;52.124;5.424;2023-12-20T06:21:00;101439.69;;;8.91;86.70
71976;BME280;68326;52.124;5.424;2023-12-20T06:23:27;101444.06;;;8.89;86.74
71976;BME280;68326;52.124;5.424;2023-12-20T06:25:54;101434.38;;;8.94;86.67
71976;BME280;68326;52.124;5.424;2023-12-20T06:28:20;101438.78;;;8.92;86.21
71976;BME280;68326;52.124;5.424;2023-12-20T06:30:47;101440.53;;;8.91;86.89
71976;BME280;68326;52.124;5.424;2023-12-20T06:33:15;101441.19;;;8.96;85.88
71976;BME280;68326;52.124;5.424;2023-12-20T06:35:42;101436.75;;;9.00;86.03
71976;BME280;68326;52.124;5.424;2023-12-20T06:38:09;101439.41;;;8.98;85.88
71976;BME280;68326;52.124;5.424;2023-12-20T06:40:35;101427.34;;;8.97;85.71
71976;BME280;68326;52.124;5.424;2023-12-20T06:43:02;101439.31;;;9.02;85.98
71976;BME280;68326;52.124;5.424;2023-12-20T06:45:41;101436.72;;;9.02;85.60
71976;BME280;68326;52.124;5.424;2023-12-20T06:48:08;101430.69;;;9.01;85.89
71976;BME280;68326;52.124;5.424;2023-12-20T06:50:37;101427.13;;;9.04;85.65
71976;BME280;68326;52.124;5.424;2023-12-20T06:53:06;101422.78;;;9.04;85.52
71976;BME280;68326;52.124;5.424;2023-12-20T06:55:35;101421.97;;;9.02;85.58
71976;BME280;68326;52.124;5.424;2023-12-20T06:58:02;101418.50;;;9.03;86.27
71976;BME280;68326;52.124;5.424;2023-12-20T07:00:30;101425.41;;;9.03;85.81
71976;BME280;68326;52.124;5.424;2023-12-20T07:02:57;101425.38;;;9.04;85.22
71976;BME280;68326;52.124;5.424;2023-12-20T07:05:23;101419.44;;;9.01;85.12
71976;BME280;68326;52.124;5.424;2023-12-20T07:07:50;101421.81;;;9.07;85.66
71976;BME280;68326;52.124;5.424;2023-12-20T07:10:17;101418.50;;;9.03;85.38
71976;BME280;68326;52.124;5.424;2023-12-20T07:12:44;101426.22;;;9.05;85.88
71976;BME280;68326;52.124;5.424;2023-12-20T07:15:11;101433.13;;;9.06;85.67
71976;BME280;68326;52.124;5.424;2023-12-20T07:17:37;101426.06;;;9.09;85.63
71976;BME280;68326;52.124;5.424;2023-12-20T07:20:04;101420.81;;;9.11;85.28
71976;BME280;68326;52.124;5.424;2023-12-20T07:22:33;101421.66;;;9.11;85.47
71976;BME280;68326;52.124;5.424;2023-12-20T07:25:00;101420.72;;;9.14;85.82
71976;BME280;68326;52.124;5.424;2023-12-20T07:27:27;101413.88;;;9.11;85.42
71976;BME280;68326;52.124;5.424;2023-12-20T07:29:54;101415.56;;;9.12;85.35
71976;BME280;68326;52.124;5.424;2023-12-20T07:32:20;101413.72;;;9.16;85.11
71976;BME280;68326;52.124;5.424;2023-12-20T07:34:47;101410.34;;;9.14;84.86
71976;BME280;68326;52.124;5.424;2023-12-20T07:37:13;101405.97;;;9.14;85.64
71976;BME280;68326;52.124;5.424;2023-12-20T07:39:40;101396.44;;;9.15;85.26
71976;BME280;68326;52.124;5.424;2023-12-20T07:42:08;101409.25;;;9.19;85.56
71976;BME280;68326;52.124;5.424;2023-12-20T07:44:35;101405.81;;;9.19;84.93
71976;BME280;68326;52.124;5.424;2023-12-20T07:47:05;101412.66;;;9.22;85.19
71976;BME280;68326;52.124;5.424;2023-12-20T07:49:31;101418.63;;;9.24;85.61
71976;BME280;68326;52.124;5.424;2023-12-20T07:51:58;101419.47;;;9.24;85.21
71976;BME280;68326;52.124;5.424;2023-12-20T07:54:25;101427.34;;;9.23;85.36
71976;BME280;68326;52.124;5.424;2023-12-20T07:56:52;101428.13;;;9.25;84.42
71976;BME280;68326;52.124;5.424;2023-12-20T07:59:18;101437.44;;;9.30;84.89
71976;BME280;68326;52.124;5.424;2023-12-20T08:01:57;101435.94;;;9.25;84.95
71976;BME280;68326;52.124;5.424;2023-12-20T08:04:24;101437.50;;;9.29;84.76
71976;BME280;68326;52.124;5.424;2023-12-20T08:06:51;101435.81;;;9.28;85.27
71976;BME280;68326;52.124;5.424;2023-12-20T08:09:18;101447.81;;;9.30;84.91
71976;BME280;68326;52.124;5.424;2023-12-20T08:11:49;101448.53;;;9.35;84.75
71976;BME280;68326;52.124;5.424;2023-12-20T08:14:15;101449.53;;;9.31;85.49
71976;BME280;68326;52.124;5.424;2023-12-20T08:16:42;101447.56;;;9.38;85.27
71976;BME280;68326;52.124;5.424;2023-12-20T08:19:08;101453.78;;;9.34;85.44
71976;BME280;68326;52.124;5.424;2023-12-20T08:21:35;101438.94;;;9.37;85.02
71976;BME280;68326;52.124;5.424;2023-12-20T08:24:04;101437.22;;;9.36;85.10
71976;BME280;68326;52.124;5.424;2023-12-20T08:26:32;101432.72;;;9.42;85.37
71976;BME280;68326;52.124;5.424;2023-12-20T08:28:58;101435.38;;;9.40;84.91
71976;BME280;68326;52.124;5.424;2023-12-20T08:31:27;101435.25;;;9.43;85.31
71976;BME280;68326;52.124;5.424;2023-12-20T08:33:54;101424.06;;;9.41;84.89
71976;BME280;68326;52.124;5.424;2023-12-20T08:36:21;101427.44;;;9.43;85.10
71976;BME280;68326;52.124;5.424;2023-12-20T08:38:49;101425.78;;;9.42;84.44
71976;BME280;68326;52.124;5.424;2023-12-20T08:41:17;101424.13;;;9.39;85.08
71976;BME280;68326;52.124;5.424;2023-12-20T08:43:44;101424.06;;;9.41;85.09
71976;BME280;68326;52.124;5.424;2023-12-20T08:46:10;101432.59;;;9.45;84.88
71976;BME280;68326;52.124;5.424;2023-12-20T08:48:38;101420.22;;;9.51;84.63
71976;BME280;68326;52.124;5.424;2023-12-20T08:51:05;101426.44;;;9.47;85.15
71976;BME280;68326;52.124;5.424;2023-12-20T08:53:35;101425.66;;;9.45;85.32
71976;BME280;68326;52.124;5.424;2023-12-20T08:56:01;101423.06;;;9.45;85.85
71976;BME280;68326;52.124;5.424;2023-12-20T08:58:28;101430.06;;;9.43;85.42
71976;BME280;68326;52.124;5.424;2023-12-20T09:00:55;101431.84;;;9.41;86.40
71976;BME280;68326;52.124;5.424;2023-12-20T09:03:24;101433.78;;;9.36;86.55
71976;BME280;68326;52.124;5.424;2023-12-20T09:05:50;101420.00;;;9.34;86.63
71976;BME280;68326;52.124;5.424;2023-12-20T09:08:17;101425.94;;;9.37;87.64
71976;BME280;68326;52.124;5.424;2023-12-20T09:10:43;101420.13;;;9.31;88.17
71976;BME280;68326;52.124;5.424;2023-12-20T09:13:11;101419.25;;;9.30;88.46
71976;BME280;68326;52.124;5.424;2023-12-20T09:15:37;101423.56;;;9.31;88.58
71976;BME280;68326;52.124;5.424;2023-12-20T09:18:04;101422.66;;;9.32;88.45
71976;BME280;68326;52.124;5.424;2023-12-20T09:20:31;101430.44;;;9.32;89.36
71976;BME280;68326;52.124;5.424;2023-12-20T09:22:58;101413.19;;;9.31;89.20
71976;BME280;68326;52.124;5.424;2023-12-20T09:25:24;101419.16;;;9.33;89.60
71976;BME280;68326;52.124;5.424;2023-12-20T09:27:52;101422.72;;;9.31;89.41
71976;BME280;68326;52.124;5.424;2023-12-20T09:30:19;101423.28;;;9.39;89.15
71976;BME280;68326;52.124;5.424;2023-12-20T09:32:53;101415.59;;;9.36;89.31
71976;BME280;68326;52.124;5.424;2023-12-20T09:35:20;101418.94;;;9.39;88.73
71976;BME280;68326;52.124;5.424;2023-12-20T09:37:48;101421.38;;;9.44;88.73
71976;BME280;68326;52.124;5.424;2023-12-20T09:40:18;101415.88;;;9.52;89.05
71976;BME280;68326;52.124;5.424;2023-12-20T09:43:04;101419.22;;;9.55;87.98
71976;BME280;68326;52.124;5.424;2023-12-20T09:45:35;101417.31;;;9.61;87.77
71976;BME280;68326;52.124;5.424;2023-12-20T09:48:03;101428.38;;;9.66;87.71
71976;BME280;68326;52.124;5.424;2023-12-20T09:50:30;101424.97;;;9.64;87.52
71976;BME280;68326;52.124;5.424;2023-12-20T09:53:00;101425.50;;;9.73;87.41
71976;BME280;68326;52.124;5.424;2023-12-20T09:55:30;101427.13;;;9.76;87.42
71976;BME280;68326;52.124;5.424;2023-12-20T09:57:59;101421.69;;;9.82;86.59
71976;BME280;68326;52.124;5.424;2023-12-20T10:00:26;101417.53;;;9.78;86.53
71976;BME280;68326;52.124;5.424;2023-12-20T10:02:59;101424.97;;;9.87;86.39
71976;BME280;68326;52.124;5.424;2023-12-20T10:05:33;101429.28;;;9.88;86.41
71976;BME280;68326;52.124;5.424;2023-12-20T10:08:01;101434.34;;;9.91;86.31
71976;BME280;68326;52.124;5.424;2023-12-20T10:10:29;101429.97;;;9.92;85.91
71976;BME280;68326;52.124;5.424;2023-12-20T10:13:11;101435.88;;;9.97;85.47
71976;BME280;68326;52.124;5.424;2023-12-20T10:15:39;101427.09;;;9.99;85.96
71976;BME280;68326;52.124;5.424;2023-12-20T10:18:07;101439.97;;;10.03;85.32
71976;BME280;68326;52.124;5.424;2023-12-20T10:20:34;101437.38;;;10.03;85.14
71976;BME280;68326;52.124;5.424;2023-12-20T10:23:01;101434.91;;;9.99;84.87
71976;BME280;68326;52.124;5.424;2023-12-20T10:25:28;101437.44;;;10.01;84.86
71976;BME280;68326;52.124;5.424;2023-12-20T10:30:38;101432.25;;;10.01;85.11
71976;BME280;68326;52.124;5.424;2023-12-20T10:33:08;101418.97;;;10.07;85.17
71976;BME280;68326;52.124;5.424;2023-12-20T10:35:38;101418.88;;;10.10;84.41
71976;BME280;68326;52.124;5.424;2023-12-20T10:38:10;101418.75;;;10.13;84.79
71976;BME280;68326;52.124;5.424;2023-12-20T10:40:37;101412.59;;;10.16;84.38
71976;BME280;68326;52.124;5.424;2023-12-20T10:43:05;101417.00;;;10.14;84.16
71976;BME280;68326;52.124;5.424;2023-12-20T10:45:32;101414.34;;;10.15;84.37
71976;BME280;68326;52.124;5.424;2023-12-20T10:47:59;101410.00;;;10.16;84.58
71976;BME280;68326;52.124;5.424;2023-12-20T10:50:28;101414.94;;;10.22;83.93
71976;BME280;68326;52.124;5.424;2023-12-20T10:52:56;101416.78;;;10.20;83.96
71976;BME280;68326;52.124;5.424;2023-12-20T10:55:24;101406.19;;;10.25;84.71
71976;BME280;68326;52.124;5.424;2023-12-20T10:57:52;101407.88;;;10.26;84.21
71976;BME280;68326;52.124;5.424;2023-12-20T11:00:20;101400.91;;;10.26;83.36
71976;BME280;68326;52.124;5.424;2023-12-20T11:02:49;101399.94;;;10.29;83.38
71976;BME280;68326;52.124;5.424;2023-12-20T11:08:33;101394.44;;;10.36;83.60
71976;BME280;68326;52.124;5.424;2023-12-20T11:11:21;101396.03;;;10.40;83.39
71976;BME280;68326;52.124;5.424;2023-12-20T11:16:22;101390.13;;;10.57;82.42
71976;BME280;68326;52.124;5.424;2023-12-20T11:18:51;101388.94;;;10.65;82.21
71976;BME280;68326;52.124;5.424;2023-12-20T11:21:19;101387.81;;;10.72;81.14
71976;BME280;68326;52.124;5.424;2023-12-20T11:23:46;101377.38;;;10.72;81.44
71976;BME280;68326;52.124;5.424;2023-12-20T11:26:16;101374.97;;;10.67;81.66
71976;BME280;68326;52.124;5.424;2023-12-20T11:28:43;101363.13;;;10.60;83.06
71976;BME280;68326;52.124;5.424;2023-12-20T11:31:14;101363.91;;;10.62;81.94
71976;BME280;68326;52.124;5.424;2023-12-20T11:33:40;101371.59;;;10.65;82.70
71976;BME280;68326;52.124;5.424;2023-12-20T11:36:14;101374.63;;;10.75;83.07
71976;BME280;68326;52.124;5.424;2023-12-20T11:38:56;101368.34;;;10.80;82.74
71976;BME280;68326;52.124;5.424;2023-12-20T11:41:23;101357.88;;;10.82;82.92
71976;BME280;68326;52.124;5.424;2023-12-20T11:43:53;101364.03;;;10.79;82.10
71976;BME280;68326;52.124;5.424;2023-12-20T11:46:20;101358.38;;;10.70;82.01
71976;BME280;68326;52.124;5.424;2023-12-20T11:48:48;101360.78;;;10.74;82.11
71976;BME280;68326;52.124;5.424;2023-12-20T11:51:15;101347.97;;;10.70;82.42
71976;BME280;68326;52.124;5.424;2023-12-20T11:53:41;101344.31;;;10.74;81.68
71976;BME280;68326;52.124;5.424;2023-12-20T11:56:11;101332.41;;;10.68;81.19
71976;BME280;68326;52.124;5.424;2023-12-20T11:58:38;101339.19;;;10.72;81.28
71976;BME280;68326;52.124;5.424;2023-12-20T12:01:05;101345.94;;;10.76;80.76
71976;BME280;68326;52.124;5.424;2023-12-20T12:03:35;101342.56;;;10.74;81.20
71976;BME280;68326;52.124;5.424;2023-12-20T12:06:02;101338.88;;;10.80;81.33
71976;BME280;68326;52.124;5.424;2023-12-20T12:08:31;101333.84;;;10.75;80.52
71976;BME280;68326;52.124;5.424;2023-12-20T12:10:58;101330.47;;;10.73;81.15
71976;BME280;68326;52.124;5.424;2023-12-20T12:13:24;101334.63;;;10.77;81.05
71976;BME280;68326;52.124;5.424;2023-12-20T12:15:54;101355.53;;;10.76;81.33
71976;BME280;68326;52.124;5.424;2023-12-20T12:18:20;101359.03;;;10.75;80.83
71976;BME280;68326;52.124;5.424;2023-12-20T12:20:48;101346.94;;;10.74;81.14
71976;BME280;68326;52.124;5.424;2023-12-20T12:23:14;101357.34;;;10.74;81.07
71976;BME280;68326;52.124;5.424;2023-12-20T12:25:48;101353.97;;;10.72;80.41
71976;BME280;68326;52.124;5.424;2023-12-20T12:28:15;101352.13;;;10.74;81.21
71976;BME280;68326;52.124;5.424;2023-12-20T12:30:42;101334.63;;;10.77;80.67
71976;BME280;68326;52.124;5.424;2023-12-20T12:33:19;101328.44;;;10.80;80.83
71976;BME280;68326;52.124;5.424;2023-12-20T12:35:45;101321.88;;;10.71;80.67
71976;BME280;68326;52.124;5.424;2023-12-20T12:38:14;101323.44;;;10.75;80.93
71976;BME280;68326;52.124;5.424;2023-12-20T12:40:43;101326.06;;;10.75;80.99
71976;BME280;68326;52.124;5.424;2023-12-20T12:43:09;101330.38;;;10.75;81.04
71976;BME280;68326;52.124;5.424;2023-12-20T12:45:36;101313.88;;;10.76;81.31
71976;BME280;68326;52.124;5.424;2023-12-20T12:48:03;101300.13;;;10.72;81.42
71976;BME280;68326;52.124;5.424;2023-12-20T12:50:30;101306.97;;;10.75;81.75
71976;BME280;68326;52.124;5.424;2023-12-20T12:52:57;101312.38;;;10.70;81.82
71976;BME280;68326;52.124;5.424;2023-12-20T12:55:23;101308.78;;;10.73;81.35
71976;BME280;68326;52.124;5.424;2023-12-20T12:57:50;101297.69;;;10.69;81.54
71976;BME280;68326;52.124;5.424;2023-12-20T13:00:17;101302.63;;;10.75;81.15
71976;BME280;68326;52.124;5.424;2023-12-20T13:02:43;101287.00;;;10.75;81.66
71976;BME280;68326;52.124;5.424;2023-12-20T13:05:10;101287.84;;;10.76;81.84
71976;BME280;68326;52.124;5.424;2023-12-20T13:07:37;101279.38;;;10.71;81.17